Time;durP1;ratioP1;P1;durP2;ratioP2;P2;SDS_P1;SDS_P2;PMS_P1;PMS_P2;Temp;Humidity;BMP_temperature;BMP_pressure;BME280_temperature;BME280_humidity;BME280_pressure;Samples;Min_cycle;Max_cycle;Signal;HPM_P1;HPM_P2
2022/03/22 00:00:56;;;;;;;48.60;25.73;;;;;;;7.79;77.40;102938.75;4986251;28;20026;-88
2022/03/22 00:03:25;;;;;;;52.45;25.67;;;;;;;7.71;75.90;102935.34;4991933;28;20049;-88
2022/03/22 00:05:54;;;;;;;52.72;25.40;;;;;;;7.71;77.21;102937.16;5005969;28;20810;-83
2022/03/22 00:08:20;;;;;;;50.55;25.80;;;;;;;7.66;77.27;102932.75;5004166;28;20041;-89
2022/03/22 00:10:45;;;;;;;53.47;27.23;;;;;;;7.62;77.97;102936.47;5000823;28;20030;-88
2022/03/22 00:13:11;;;;;;;56.17;27.55;;;;;;;7.59;78.42;102941.06;4993496;28;20034;-87
2022/03/22 00:15:36;;;;;;;52.75;25.98;;;;;;;7.58;78.46;102945.59;4990929;28;20095;-83
2022/03/22 00:18:02;;;;;;;42.63;22.85;;;;;;;7.51;76.19;102946.72;4988422;28;20801;-84
2022/03/22 00:20:28;;;;;;;49.53;25.00;;;;;;;7.45;75.45;102941.44;5010824;28;20413;-88
2022/03/22 00:22:54;;;;;;;50.28;26.17;;;;;;;7.44;77.96;102947.78;4985380;28;20033;-89
2022/03/22 00:25:20;;;;;;;43.65;23.77;;;;;;;7.42;77.26;102941.53;4992743;28;20504;-83
2022/03/22 00:27:52;;;;;;;53.58;26.90;;;;;;;7.42;78.17;102936.13;4992685;28;20448;-83
2022/03/22 00:30:23;;;;;;;51.70;26.70;;;;;;;7.44;77.71;102941.47;4989709;28;20042;-87
2022/03/22 00:32:53;;;;;;;53.67;25.15;;;;;;;7.43;77.96;102948.72;4961552;28;20112;-83
2022/03/22 00:35:30;;;;;;;49.83;23.58;;;;;;;7.38;77.05;102940.72;4989946;28;20042;-83
2022/03/22 00:37:57;;;;;;;51.25;25.40;;;;;;;7.36;78.47;102937.13;4988795;28;20040;-83
2022/03/22 00:40:24;;;;;;;50.70;26.45;;;;;;;7.44;78.64;102952.31;4989970;28;20124;-83
2022/03/22 00:42:53;;;;;;;48.63;25.48;;;;;;;7.39;77.45;102953.31;5009581;28;20037;-83
2022/03/22 00:45:27;;;;;;;51.47;27.05;;;;;;;7.28;76.56;102949.13;4988154;28;20049;-83
2022/03/22 00:47:54;;;;;;;48.67;24.70;;;;;;;7.19;75.41;102949.34;5004324;28;20042;-88
2022/03/22 00:50:27;;;;;;;42.13;23.50;;;;;;;7.13;75.97;102950.34;4992105;28;20040;-87
2022/03/22 00:52:53;;;;;;;45.08;23.58;;;;;;;7.06;76.06;102944.22;5008695;28;20048;-88
2022/03/22 00:55:21;;;;;;;47.75;24.70;;;;;;;7.04;75.95;102945.16;4975137;28;20068;-83
2022/03/22 00:57:47;;;;;;;45.70;23.48;;;;;;;7.00;77.11;102940.78;4984763;28;20050;-84
2022/03/22 01:00:14;;;;;;;52.88;24.83;;;;;;;6.99;78.08;102947.97;5007799;28;20038;-87
2022/03/22 01:02:45;;;;;;;51.53;24.35;;;;;;;6.92;76.19;102945.47;4971129;28;20114;-83
2022/03/22 01:05:14;;;;;;;51.38;25.75;;;;;;;6.89;77.54;102951.81;4983838;28;20512;-83
2022/03/22 01:07:41;;;;;;;50.35;25.88;;;;;;;6.89;77.58;102954.53;4990486;28;20783;-87
2022/03/22 01:10:08;;;;;;;45.75;24.33;;;;;;;6.83;77.46;102947.44;4989927;28;20104;-84
2022/03/22 01:12:37;;;;;;;50.63;24.30;;;;;;;6.85;77.79;102948.31;5005776;28;20038;-84
2022/03/22 01:15:10;;;;;;;47.15;24.98;;;;;;;6.87;77.84;102954.59;4984535;28;20035;-88
2022/03/22 01:17:36;;;;;;;43.40;22.10;;;;;;;6.84;77.26;102941.13;5001646;28;20030;-89
2022/03/22 01:20:05;;;;;;;46.65;24.00;;;;;;;6.90;78.37;102951.81;4990115;28;20087;-87
2022/03/22 01:22:31;;;;;;;48.55;24.00;;;;;;;6.89;77.39;102951.81;4972492;28;20477;-85
2022/03/22 01:24:56;;;;;;;47.97;24.20;;;;;;;6.90;76.91;102957.22;4982119;28;20030;-87
2022/03/22 01:27:22;;;;;;;47.70;23.27;;;;;;;6.88;77.08;102955.47;4991025;28;20056;-83
2022/03/22 01:29:48;;;;;;;47.70;24.88;;;;;;;6.93;77.25;102958.94;4986632;28;20490;-88
2022/03/22 01:32:14;;;;;;;41.97;22.38;;;;;;;6.93;78.14;102950.84;4986826;28;20497;-89
2022/03/22 01:34:39;;;;;;;44.42;22.38;;;;;;;6.93;77.35;102953.53;5003901;28;20160;-83
2022/03/22 01:37:05;;;;;;;47.83;22.05;;;;;;;6.95;77.38;102956.19;5004189;28;20030;-88
2022/03/22 01:39:31;;;;;;;46.20;23.02;;;;;;;6.98;77.10;102957.03;4983277;28;20054;-86
2022/03/22 01:41:57;;;;;;;42.95;22.55;;;;;;;6.97;77.34;102940.84;4988611;28;20496;-88
2022/03/22 01:44:26;;;;;;;46.90;20.98;;;;;;;6.93;77.59;102948.13;4988714;28;20576;-83
2022/03/22 01:46:54;;;;;;;40.85;21.45;;;;;;;6.96;77.31;102958.00;4995109;28;20037;-83
2022/03/22 01:49:19;;;;;;;40.97;21.55;;;;;;;6.98;76.70;102951.63;4988263;28;20037;-83
2022/03/22 01:51:48;;;;;;;40.03;21.65;;;;;;;6.95;76.88;102951.72;5006594;28;20085;-84
2022/03/22 01:54:15;;;;;;;40.60;22.05;;;;;;;6.92;77.49;102951.75;5007108;28;20065;-83
2022/03/22 01:56:41;;;;;;;42.83;22.85;;;;;;;6.96;77.92;102948.06;4983596;28;20048;-83
2022/03/22 01:59:06;;;;;;;37.53;20.05;;;;;;;6.98;77.20;102957.03;4984644;28;20037;-84
2022/03/22 02:07:04;;;;;;;40.47;21.02;;;;;;;6.98;76.52;102939.91;4985474;28;20046;-89
2022/03/22 02:09:29;;;;;;;43.10;21.63;;;;;;;6.97;77.37;102944.44;5006513;28;20030;-90
2022/03/22 02:11:55;;;;;;;38.13;21.77;;;;;;;6.99;76.61;102945.28;4984824;28;20029;-83
2022/03/22 02:14:21;;;;;;;44.75;21.23;;;;;;;6.96;77.20;102930.94;4976868;28;20030;-85
2022/03/22 02:16:47;;;;;;;41.45;21.73;;;;;;;6.99;76.41;102941.69;5002083;28;20045;-83
2022/03/22 02:19:14;;;;;;;38.92;19.80;;;;;;;6.94;77.60;102930.97;4986303;28;20038;-89
2022/03/22 02:21:41;;;;;;;38.60;21.42;;;;;;;6.92;77.38;102929.22;5005794;28;20395;-85
2022/03/22 02:24:07;;;;;;;36.38;20.63;;;;;;;6.90;77.02;102934.66;5006066;28;20037;-82
2022/03/22 02:26:32;;;;;;;38.53;20.75;;;;;;;6.82;76.25;102931.28;4988310;28;20037;-83
2022/03/22 02:28:59;;;;;;;42.70;20.92;;;;;;;6.77;77.70;102934.09;4990330;28;20033;-83
2022/03/22 02:31:27;;;;;;;40.58;21.00;;;;;;;6.76;77.58;102937.72;4998696;28;20543;-84
2022/03/22 02:33:52;;;;;;;39.60;20.50;;;;;;;6.71;77.48;102938.72;4977814;28;20564;-88
2022/03/22 02:36:19;;;;;;;36.60;20.90;;;;;;;6.64;76.44;102933.47;4977851;28;20022;-89
2022/03/22 02:38:44;;;;;;;36.38;20.08;;;;;;;6.64;76.74;102944.28;4979300;28;20034;-87
2022/03/22 02:41:21;;;;;;;34.35;19.25;;;;;;;6.62;76.89;102937.09;4987089;28;20065;-88
2022/03/22 02:43:48;;;;;;;42.08;20.45;;;;;;;6.57;77.42;102937.22;4974243;28;20034;-83
2022/03/22 02:46:14;;;;;;;38.28;19.65;;;;;;;6.49;78.32;102938.34;4988515;28;20030;-87
2022/03/22 02:48:40;;;;;;;35.60;18.88;;;;;;;6.45;78.26;102936.63;4988126;28;20026;-88
2022/03/22 02:51:06;;;;;;;35.65;18.98;;;;;;;6.43;77.60;102936.63;4979502;28;20088;-84
2022/03/22 02:53:31;;;;;;;36.95;19.02;;;;;;;6.48;77.67;102936.53;4986435;28;20025;-90
2022/03/22 02:55:57;;;;;;;38.08;19.40;;;;;;;6.53;77.18;102940.03;4986531;28;22413;-83
2022/03/22 02:58:22;;;;;;;36.20;19.45;;;;;;;6.52;76.08;102940.94;5001743;28;20060;-88
2022/03/22 03:00:47;;;;;;;39.70;19.70;;;;;;;6.43;76.63;102931.22;4988222;28;20452;-83
2022/03/22 03:03:13;;;;;;;40.30;22.17;;;;;;;6.41;78.51;102938.47;4999683;28;20432;-83
2022/03/22 03:05:38;;;;;;;36.17;19.02;;;;;;;6.35;76.66;102941.31;5005419;28;20052;-84
2022/03/22 03:08:04;;;;;;;37.67;19.23;;;;;;;6.18;77.58;102944.38;4982748;28;20497;-84
2022/03/22 03:10:30;;;;;;;39.33;19.23;;;;;;;6.05;77.57;102948.22;4971095;28;20035;-83
2022/03/22 03:13:04;;;;;;;38.17;19.38;;;;;;;5.95;77.29;102947.53;4991076;28;20033;-84
2022/03/22 03:15:30;;;;;;;38.75;18.60;;;;;;;5.89;77.60;102944.91;4988987;28;20521;-87
2022/03/22 03:17:56;;;;;;;36.30;18.35;;;;;;;5.80;78.30;102947.78;4988377;28;20036;-86
2022/03/22 03:20:22;;;;;;;35.17;18.42;;;;;;;5.74;78.10;102945.22;4990024;28;20485;-87
2022/03/22 03:22:47;;;;;;;36.63;18.63;;;;;;;5.70;77.26;102946.19;4999410;28;20038;-84
2022/03/22 03:25:13;;;;;;;34.10;18.33;;;;;;;5.64;77.16;102939.06;4989252;28;20038;-84
2022/03/22 03:27:38;;;;;;;41.30;19.88;;;;;;;5.61;77.88;102958.03;4988313;28;20030;-83
2022/03/22 03:30:05;;;;;;;36.55;18.88;;;;;;;5.52;79.13;102934.78;4984229;28;20034;-83
2022/03/22 03:32:31;;;;;;;32.80;18.30;;;;;;;5.49;79.35;102950.16;5004892;28;20037;-85
2022/03/22 03:34:57;;;;;;;36.00;19.17;;;;;;;5.45;78.99;102951.09;4990705;28;20233;-84
2022/03/22 03:37:27;;;;;;;34.67;18.25;;;;;;;5.42;79.04;102953.88;4963502;28;20068;-87
2022/03/22 03:39:52;;;;;;;37.40;19.10;;;;;;;5.40;79.44;102950.31;4984805;28;20150;-87
2022/03/22 03:42:18;;;;;;;43.30;19.77;;;;;;;5.48;79.47;102959.16;4989342;28;20057;-83
2022/03/22 03:47:28;;;;;;;47.17;20.58;;;;;;;5.57;79.90;102967.09;4990057;28;20050;-87
2022/03/22 03:50:01;;;;;;;34.88;18.17;;;;;;;5.55;78.43;102971.66;4987444;28;20042;-89
2022/03/22 03:52:31;;;;;;;41.13;20.25;;;;;;;5.43;78.95;102967.34;5002876;28;20030;-88
2022/03/22 03:54:58;;;;;;;34.10;18.83;;;;;;;5.38;79.79;102974.63;4989538;28;20459;-89
2022/03/22 03:57:25;;;;;;;34.25;18.02;;;;;;;5.37;78.63;102972.84;4988047;28;20046;-84
2022/03/22 03:59:51;;;;;;;35.70;17.75;;;;;;;5.34;79.24;102979.19;4983127;28;20041;-89
2022/03/22 04:02:17;;;;;;;37.35;18.80;;;;;;;5.32;79.64;102970.22;4986693;28;20033;-85
2022/03/22 04:04:43;;;;;;;35.60;17.50;;;;;;;5.36;80.07;102981.84;4992685;28;20856;-83
2022/03/22 04:07:11;;;;;;;34.22;17.52;;;;;;;5.36;79.54;102974.66;4968454;28;20038;-84
2022/03/22 04:09:38;;;;;;;31.85;17.15;;;;;;;5.39;80.26;102973.72;4985956;28;20394;-86
2022/03/22 04:12:05;;;;;;;39.97;19.25;;;;;;;5.46;80.80;102974.50;4972429;28;20073;-87
2022/03/22 04:14:30;;;;;;;36.50;17.52;;;;;;;5.48;80.00;102980.75;4992164;28;20040;-84
2022/03/22 04:16:56;;;;;;;32.35;16.77;;;;;;;5.47;79.77;102979.00;4993463;28;20030;-84
2022/03/22 04:19:22;;;;;;;36.95;18.10;;;;;;;5.48;80.05;102986.16;4992132;28;20030;-83
2022/03/22 04:21:48;;;;;;;33.50;17.40;;;;;;;5.45;79.93;102975.41;4983870;28;20460;-83
2022/03/22 04:24:14;;;;;;;32.55;16.52;;;;;;;5.49;78.08;102982.53;4993064;28;20073;-88
2022/03/22 04:26:42;;;;;;;33.70;18.55;;;;;;;5.48;79.60;102984.34;5002684;28;20528;-90
2022/03/22 04:34:38;;;;;;;32.53;16.83;;;;;;;5.52;78.68;102977.09;5008555;28;20034;-90
2022/03/22 04:37:05;;;;;;;35.42;17.60;;;;;;;5.51;79.50;102980.72;5007685;28;20044;-91
2022/03/22 04:39:31;;;;;;;34.60;16.92;;;;;;;5.44;79.25;102977.22;4990388;28;20053;-85
2022/03/22 04:41:57;;;;;;;40.75;18.10;;;;;;;5.50;79.79;102974.44;4975041;28;20034;-88
2022/03/22 04:44:26;;;;;;;34.25;17.60;;;;;;;5.52;79.41;102978.00;4989934;28;20327;-86
2022/03/22 04:46:52;;;;;;;29.52;17.13;;;;;;;5.52;79.50;102982.50;4964563;28;20038;-85
2022/03/22 04:49:18;;;;;;;34.38;17.42;;;;;;;5.42;79.45;102973.66;4975493;28;20157;-88
2022/03/22 04:57:12;;;;;;;29.00;15.52;;;;;;;5.28;78.28;102990.09;5006931;28;20113;-87
2022/03/22 04:59:37;;;;;;;30.55;15.68;;;;;;;5.12;78.16;102983.13;4989396;28;20123;-87
2022/03/22 05:02:03;;;;;;;27.85;15.23;;;;;;;4.98;78.46;102987.84;4989356;28;20125;-87
2022/03/22 05:04:28;;;;;;;35.72;15.98;;;;;;;4.86;78.44;102988.94;4994012;28;20044;-89
2022/03/22 05:06:54;;;;;;;29.58;16.67;;;;;;;4.85;79.61;103000.63;5003545;28;20033;-84
2022/03/22 05:09:20;;;;;;;30.40;14.98;;;;;;;4.82;79.66;103003.38;4974146;28;20034;-84
2022/03/22 05:11:45;;;;;;;32.92;17.00;;;;;;;4.81;79.62;102997.09;4966737;28;20493;-91
2022/03/22 05:14:11;;;;;;;28.27;16.08;;;;;;;4.78;79.28;103002.50;4985726;28;20034;-87
2022/03/22 05:16:37;;;;;;;32.38;15.90;;;;;;;4.78;78.85;103002.50;4989754;28;20629;-91
2022/03/22 05:19:05;;;;;;;33.10;17.30;;;;;;;4.78;79.51;103004.31;4973118;28;20057;-92
2022/03/22 05:21:32;;;;;;;36.80;17.90;;;;;;;4.80;79.70;102999.78;4987134;28;20041;-88
2022/03/22 05:23:57;;;;;;;29.63;16.25;;;;;;;4.92;81.02;103014.91;4999391;28;20073;-88
2022/03/22 05:26:25;;;;;;;33.20;18.88;;;;;;;4.93;80.48;103011.28;4979355;28;20038;-83
2022/03/22 05:28:51;;;;;;;34.45;17.48;;;;;;;4.95;80.37;103009.47;4967449;28;20060;-85
2022/03/22 05:31:16;;;;;;;37.83;18.42;;;;;;;4.95;80.37;103015.75;4961074;28;20125;-87
2022/03/22 05:33:42;;;;;;;36.63;17.35;;;;;;;4.93;79.92;103014.00;4990852;28;20095;-83
2022/03/22 05:36:08;;;;;;;33.78;18.65;;;;;;;4.92;80.91;103014.91;4974146;28;20030;-87
2022/03/22 05:38:33;;;;;;;34.33;17.70;;;;;;;4.95;80.25;103020.28;4989007;28;20102;-87
2022/03/22 05:41:02;;;;;;;33.80;18.60;;;;;;;4.97;80.66;103022.00;4978513;28;20133;-84
2022/03/22 05:43:28;;;;;;;30.77;17.60;;;;;;;5.04;80.71;103023.72;4991551;28;20513;-90
2022/03/22 05:45:54;;;;;;;31.88;19.48;;;;;;;5.07;80.45;103023.66;4972548;28;20109;-90
2022/03/22 05:48:19;;;;;;;34.22;18.45;;;;;;;5.09;80.50;103029.06;4989962;28;20038;-89
2022/03/22 05:50:45;;;;;;;32.55;17.65;;;;;;;5.07;79.71;103025.47;5008141;28;20034;-89
2022/03/22 05:53:11;;;;;;;28.38;15.68;;;;;;;5.03;78.53;103027.31;4974456;28;20034;-83
2022/03/22 05:55:37;;;;;;;30.92;17.23;;;;;;;5.01;79.30;103020.19;4974816;28;20385;-90
2022/03/22 05:58:03;;;;;;;30.67;16.95;;;;;;;4.97;79.66;103026.53;5009395;28;20093;-84
2022/03/22 06:00:29;;;;;;;31.42;16.73;;;;;;;4.96;79.49;103022.94;4970835;28;20029;-89
2022/03/22 06:02:54;;;;;;;30.85;16.33;;;;;;;4.93;79.33;103022.97;5007614;28;20473;-83
2022/03/22 06:05:19;;;;;;;36.70;17.20;;;;;;;4.91;80.25;103026.63;4990548;28;20127;-90
2022/03/22 06:07:45;;;;;;;35.35;16.95;;;;;;;4.99;80.23;103030.06;4989695;28;20037;-87
2022/03/22 06:10:12;;;;;;;30.73;17.17;;;;;;;5.06;80.42;103029.09;4991054;28;20024;-82
2022/03/22 06:12:45;;;;;;;36.42;16.83;;;;;;;5.17;79.31;103037.03;4991039;28;20037;-87
2022/03/22 06:15:30;;;;;;;35.95;18.80;;;;;;;5.22;80.11;103033.38;4980698;28;20393;-84
2022/03/22 06:18:04;;;;;;;38.47;18.48;;;;;;;5.29;79.68;103034.16;4970917;28;20424;-83
2022/03/22 06:20:35;;;;;;;33.42;18.25;;;;;;;5.40;79.43;103040.25;4984344;28;20497;-84
2022/03/22 06:23:02;;;;;;;34.28;17.13;;;;;;;5.47;79.15;103041.06;4974706;28;20081;-83
2022/03/22 06:25:28;;;;;;;32.90;17.25;;;;;;;5.54;79.36;103040.94;4974343;28;20452;-88
2022/03/22 06:27:55;;;;;;;34.63;16.30;;;;;;;5.68;79.02;103042.53;4990289;28;20034;-84
2022/03/22 06:30:21;;;;;;;33.83;18.15;;;;;;;5.75;78.31;103039.69;4973017;28;20124;-82
2022/03/22 06:32:54;;;;;;;33.75;16.45;;;;;;;5.89;78.75;103048.44;4986879;28;20193;-84
2022/03/22 06:35:24;;;;;;;36.00;17.85;;;;;;;5.98;79.08;103039.34;5007693;28;20076;-88
2022/03/22 06:37:51;;;;;;;47.80;19.50;;;;;;;6.12;78.48;103039.97;5006931;28;20524;-84
2022/03/22 06:40:19;;;;;;;39.53;17.58;;;;;;;6.26;77.38;103034.31;4990481;28;20057;-91
2022/03/22 06:42:45;;;;;;;35.53;17.98;;;;;;;6.42;77.77;103042.09;4986341;28;20073;-83
2022/03/22 06:45:11;;;;;;;32.65;17.60;;;;;;;6.59;76.64;103045.38;4966072;28;20041;-84
2022/03/22 06:47:39;;;;;;;34.25;19.27;;;;;;;6.74;76.91;103044.16;4972289;28;20038;-83
2022/03/22 06:50:06;;;;;;;36.78;18.05;;;;;;;6.99;75.63;103047.22;4970629;28;20089;-84
2022/03/22 06:52:31;;;;;;;31.63;16.38;;;;;;;7.15;75.90;103044.13;4972224;28;20041;-84
2022/03/22 06:54:56;;;;;;;31.38;16.30;;;;;;;7.35;74.81;103046.38;4990127;28;20503;-81
2022/03/22 06:57:22;;;;;;;34.40;18.10;;;;;;;7.60;75.17;103046.69;4980576;28;20429;-83
2022/03/22 06:59:47;;;;;;;36.75;18.92;;;;;;;7.85;73.06;103051.50;5002117;28;20091;-83
2022/03/22 07:02:13;;;;;;;33.50;18.38;;;;;;;7.98;73.30;103050.25;4993699;28;20128;-87
2022/03/22 07:04:38;;;;;;;37.33;18.30;;;;;;;8.15;72.92;103050.66;4983080;28;20030;-84
2022/03/22 07:07:04;;;;;;;31.65;18.02;;;;;;;8.35;72.42;103052.84;4970149;28;20037;-88
2022/03/22 07:09:29;;;;;;;31.13;19.13;;;;;;;8.58;71.93;103054.03;5002144;28;20038;-90
2022/03/22 07:11:56;;;;;;;31.23;18.17;;;;;;;8.72;72.36;103053.63;4997528;28;20037;-88
2022/03/22 07:14:27;;;;;;;35.13;18.33;;;;;;;8.84;71.46;103056.91;4984059;28;20053;-84
2022/03/22 07:16:53;;;;;;;30.08;17.90;;;;;;;9.01;71.20;103059.13;4987088;28;20042;-83
2022/03/22 07:19:20;;;;;;;34.63;17.30;;;;;;;9.28;70.63;103065.53;4988583;28;20049;-84
2022/03/22 07:21:46;;;;;;;32.47;18.15;;;;;;;9.53;69.86;103070.16;4973302;28;20038;-85
2022/03/22 07:24:13;;;;;;;39.05;19.83;;;;;;;9.76;68.56;103062.16;4988687;28;20046;-91
2022/03/22 07:26:40;;;;;;;37.25;17.77;;;;;;;10.11;67.35;103062.75;4989683;28;20370;-90
2022/03/22 07:29:07;;;;;;;34.20;18.45;;;;;;;10.50;66.72;103065.94;5006160;28;20509;-91
2022/03/22 07:31:37;;;;;;;29.90;17.83;;;;;;;10.82;65.38;103064.75;4992023;28;20029;-84
2022/03/22 07:34:15;;;;;;;38.17;19.88;;;;;;;11.07;64.90;103064.69;5004162;28;20048;-83
2022/03/22 07:36:44;;;;;;;31.23;17.58;;;;;;;11.43;62.96;103061.47;4973276;28;20034;-83
2022/03/22 07:39:11;;;;;;;32.38;18.02;;;;;;;11.49;62.69;103069.38;4989099;28;20045;-83
2022/03/22 07:41:38;;;;;;;35.55;18.80;;;;;;;11.74;62.01;103069.25;4973568;28;20072;-83
2022/03/22 07:44:06;;;;;;;35.58;18.95;;;;;;;12.03;61.51;103061.69;5011655;28;20084;-84
2022/03/22 07:46:33;;;;;;;32.13;19.25;;;;;;;12.24;61.56;103061.66;5007873;28;20030;-86
2022/03/22 07:52:57;;;;;;;33.08;18.85;;;;;;;12.32;60.40;103055.88;5006879;28;20060;-90
2022/03/22 07:54:28;;;;;;;33.80;18.65;;;;;;;12.29;61.02;103064.19;4992251;28;20041;-87
2022/03/22 07:56:54;;;;;;;33.60;18.30;;;;;;;12.34;61.79;103059.41;5008176;28;20022;-90
2022/03/22 07:59:19;;;;;;;35.28;19.90;;;;;;;12.50;60.93;103073.28;5007886;28;20049;-89
2022/03/22 08:01:45;;;;;;;37.38;19.30;;;;;;;12.51;60.09;103065.00;4992209;28;20030;-87
2022/03/22 08:04:10;;;;;;;31.95;19.17;;;;;;;12.70;60.85;103073.25;4988629;28;20095;-84
2022/03/22 08:06:35;;;;;;;35.42;19.83;;;;;;;12.98;59.73;103071.97;4989184;28;20029;-89
2022/03/22 08:09:01;;;;;;;36.85;21.20;;;;;;;13.31;58.95;103071.34;4988901;28;20083;-85
2022/03/22 08:11:26;;;;;;;33.15;19.10;;;;;;;13.26;59.00;103072.47;5009314;28;20061;-89
2022/03/22 08:13:51;;;;;;;34.78;20.15;;;;;;;13.18;57.62;103073.75;5001107;28;20038;-83
2022/03/22 08:16:17;;;;;;;36.30;20.63;;;;;;;13.16;57.25;103064.75;4969027;28;20097;-84
2022/03/22 08:18:42;;;;;;;32.17;19.95;;;;;;;13.26;59.45;103074.31;4984697;28;20060;-84
2022/03/22 08:21:07;;;;;;;35.65;18.70;;;;;;;13.35;57.37;103073.88;4989037;28;20509;-89
2022/03/22 08:23:33;;;;;;;34.92;19.88;;;;;;;13.43;56.37;103071.66;5006480;28;20046;-84
2022/03/22 08:25:59;;;;;;;37.50;21.40;;;;;;;13.51;57.50;103072.16;5010108;28;20045;-87
2022/03/22 08:28:24;;;;;;;33.67;20.73;;;;;;;13.65;56.67;103068.72;4976157;28;20577;-84
2022/03/22 08:30:49;;;;;;;33.65;19.90;;;;;;;13.78;55.35;103072.63;4991323;28;20136;-86
2022/03/22 08:33:15;;;;;;;35.00;19.85;;;;;;;13.90;56.97;103075.72;4990283;28;20030;-84
2022/03/22 08:35:46;;;;;;;40.33;22.50;;;;;;;14.07;56.03;103083.06;5009215;28;20120;-90
2022/03/22 08:38:13;;;;;;;44.45;21.15;;;;;;;14.03;54.85;103066.81;5004006;28;20026;-88
2022/03/22 08:40:39;;;;;;;36.80;21.00;;;;;;;14.39;55.53;103075.91;5009065;28;20073;-85
2022/03/22 08:43:08;;;;;;;36.65;20.63;;;;;;;14.42;53.66;103075.75;4991171;28;20022;-85
2022/03/22 08:45:34;;;;;;;36.45;19.77;;;;;;;14.39;54.76;103073.16;4989961;28;20077;-84
2022/03/22 08:48:02;;;;;;;33.90;19.77;;;;;;;14.39;55.11;103065.84;4988029;28;20042;-91
2022/03/22 08:50:27;;;;;;;37.25;21.63;;;;;;;14.61;55.93;103078.44;4992343;28;20049;-84
2022/03/22 08:52:56;;;;;;;36.05;21.55;;;;;;;14.78;55.00;103073.81;4974519;28;20045;-89
2022/03/22 08:55:23;;;;;;;36.47;21.40;;;;;;;14.90;54.41;103074.97;5008228;28;20060;-84
2022/03/22 08:57:49;;;;;;;38.53;21.95;;;;;;;15.12;54.71;103073.81;4995880;28;20468;-89
2022/03/22 09:00:17;;;;;;;39.38;21.20;;;;;;;15.25;51.92;103061.16;4999971;28;20034;-89
2022/03/22 09:02:44;;;;;;;43.67;21.83;;;;;;;15.29;53.06;103060.91;5005997;28;20145;-85
2022/03/22 09:07:58;;;;;;;31.50;19.65;;;;;;;15.44;52.47;103075.59;4989650;28;20038;-83
2022/03/22 09:10:24;;;;;;;32.63;18.92;;;;;;;15.69;51.87;103066.84;4971943;28;20030;-91
2022/03/22 09:12:50;;;;;;;31.73;19.55;;;;;;;15.80;51.08;103064.34;4989390;28;20548;-88
2022/03/22 09:15:20;;;;;;;33.28;19.20;;;;;;;15.85;49.28;103064.06;5000677;28;20080;-83
2022/03/22 09:17:47;;;;;;;36.40;20.63;;;;;;;16.04;48.08;103072.09;4987460;28;20583;-89
2022/03/22 09:20:13;;;;;;;37.10;20.38;;;;;;;15.94;48.36;103057.16;4990978;28;20444;-85
2022/03/22 09:22:43;;;;;;;34.10;20.85;;;;;;;16.05;49.52;103068.41;4991121;28;20033;-83
2022/03/22 09:25:09;;;;;;;31.30;19.80;;;;;;;16.05;47.12;103069.28;4989917;28;20037;-91
2022/03/22 09:27:35;;;;;;;34.40;20.95;;;;;;;16.07;50.21;103067.31;4990197;28;20038;-90
2022/03/22 09:30:02;;;;;;;36.42;19.17;;;;;;;16.27;48.49;103066.13;4984361;28;20045;-90
2022/03/22 09:32:28;;;;;;;41.42;22.85;;;;;;;16.49;49.89;103065.66;4987762;28;20030;-84
2022/03/22 09:34:53;;;;;;;40.60;21.67;;;;;;;16.63;48.34;103067.56;4988277;28;20493;-91
2022/03/22 09:37:18;;;;;;;35.97;22.38;;;;;;;16.65;45.93;103071.13;4990623;28;20485;-88
2022/03/22 09:39:45;;;;;;;35.97;21.90;;;;;;;16.68;46.34;103064.53;4990627;28;20061;-84
2022/03/22 09:42:11;;;;;;;36.10;21.48;;;;;;;16.55;45.80;103058.91;5004038;28;20034;-89
2022/03/22 09:44:37;;;;;;;31.65;20.42;;;;;;;16.68;45.17;103061.78;4987809;28;20026;-86
2022/03/22 09:47:04;;;;;;;38.10;21.45;;;;;;;16.65;45.26;103062.00;5006299;28;20080;-84
2022/03/22 09:49:30;;;;;;;33.42;20.65;;;;;;;16.70;45.62;103057.09;4965615;28;20034;-84
2022/03/22 09:51:57;;;;;;;32.72;20.25;;;;;;;16.82;45.49;103070.94;4990133;28;20030;-84
2022/03/22 09:54:23;;;;;;;35.35;21.30;;;;;;;16.98;47.19;103056.25;4983602;28;20042;-85
2022/03/22 09:56:51;;;;;;;45.80;21.58;;;;;;;17.20;44.47;103063.97;4973763;28;20121;-84
2022/03/22 09:59:17;;;;;;;38.40;21.98;;;;;;;17.12;43.60;103053.47;4987114;28;20081;-85
2022/03/22 10:01:44;;;;;;;35.22;20.83;;;;;;;17.06;43.75;103051.09;4995541;28;20037;-84
2022/03/22 10:04:14;;;;;;;33.53;20.95;;;;;;;16.98;42.91;103059.00;4971635;28;20041;-84
2022/03/22 10:06:57;;;;;;;37.83;20.45;;;;;;;16.88;44.12;103057.78;4990564;28;20025;-88
2022/03/22 10:09:37;;;;;;;37.63;21.58;;;;;;;17.01;45.51;103050.53;4972007;28;20069;-88
2022/03/22 10:12:04;;;;;;;40.35;21.70;;;;;;;17.53;46.04;103047.09;4990797;28;20045;-83
2022/03/22 10:14:34;;;;;;;33.30;20.30;;;;;;;17.96;44.82;103053.38;4989005;28;20672;-84
2022/03/22 10:17:08;;;;;;;35.65;20.02;;;;;;;18.22;43.65;103035.03;5001852;28;20120;-89
2022/03/22 10:19:39;;;;;;;31.25;20.52;;;;;;;18.12;39.83;103052.31;4969463;28;20037;-83
2022/03/22 10:22:10;;;;;;;35.33;20.20;;;;;;;17.82;40.55;103043.31;4990035;28;20099;-84
2022/03/22 10:24:47;;;;;;;33.72;20.35;;;;;;;17.99;44.35;103041.25;5007842;28;20075;-84
2022/03/22 10:27:36;;;;;;;39.53;20.02;;;;;;;18.23;42.04;103041.41;4990058;28;20034;-90
2022/03/22 10:30:08;;;;;;;37.50;19.98;;;;;;;18.34;39.24;103036.94;4969305;28;20041;-89
2022/03/22 10:32:39;;;;;;;34.03;20.25;;;;;;;18.45;39.44;103041.69;4989648;28;20140;-89
2022/03/22 10:35:20;;;;;;;31.92;19.27;;;;;;;18.67;39.67;103034.66;4978154;28;20120;-88
2022/03/22 10:37:57;;;;;;;33.80;19.52;;;;;;;18.70;39.39;103045.47;5006891;28;20161;-88
2022/03/22 10:40:45;;;;;;;37.70;18.23;;;;;;;19.01;39.83;103033.97;4973665;28;20042;-90
2022/03/22 10:43:14;;;;;;;34.10;19.17;;;;;;;19.22;37.55;103033.41;4988140;28;20378;-84
2022/03/22 10:46:00;;;;;;;32.42;18.92;;;;;;;19.20;39.18;103027.97;4977864;28;20097;-91
2022/03/22 10:48:32;;;;;;;33.40;19.08;;;;;;;19.05;36.11;103016.22;4988382;28;20096;-84
2022/03/22 10:50:59;;;;;;;37.75;19.70;;;;;;;19.21;36.81;103023.34;4987128;28;20508;-84
2022/03/22 10:53:27;;;;;;;34.05;19.70;;;;;;;19.52;37.03;103022.81;4989864;28;20183;-89
2022/03/22 10:55:54;;;;;;;38.92;20.52;;;;;;;19.26;34.50;103026.66;4986789;28;20037;-84
2022/03/22 10:58:21;;;;;;;33.22;18.80;;;;;;;19.72;39.73;103026.84;4988811;28;20180;-83
2022/03/22 11:00:48;;;;;;;32.85;19.80;;;;;;;19.98;37.77;103026.72;4985512;28;20045;-88
2022/03/22 11:03:15;;;;;;;33.75;20.48;;;;;;;20.26;36.79;103020.78;4972373;28;20485;-90
2022/03/22 11:05:44;;;;;;;35.38;19.92;;;;;;;20.63;35.74;103026.19;5004219;28;20026;-89
2022/03/22 11:08:11;;;;;;;32.40;19.15;;;;;;;20.73;34.76;103027.19;4982404;28;20076;-90
2022/03/22 11:10:37;;;;;;;39.47;19.85;;;;;;;20.72;35.35;103021.81;4989360;28;20025;-88
2022/03/22 11:13:03;;;;;;;33.45;19.70;;;;;;;20.56;33.46;103020.28;4986619;28;20456;-89
2022/03/22 11:15:38;;;;;;;33.67;19.85;;;;;;;20.89;37.13;103019.44;4964822;28;20494;-89
2022/03/22 11:18:05;;;;;;;33.65;19.80;;;;;;;21.30;35.81;103017.00;4988131;28;20149;-84
2022/03/22 11:20:30;;;;;;;33.00;20.13;;;;;;;21.55;33.54;103010.31;4993402;28;20488;-86
2022/03/22 11:22:57;;;;;;;35.53;19.85;;;;;;;21.59;33.32;103015.47;4993284;28;20042;-84
2022/03/22 11:25:34;;;;;;;37.25;21.83;;;;;;;21.50;34.06;103012.59;4967947;28;20026;-90
2022/03/22 11:28:07;;;;;;;33.85;21.08;;;;;;;21.14;31.77;103009.09;4984576;28;20061;-83
2022/03/22 11:30:34;;;;;;;35.80;20.98;;;;;;;20.95;32.03;103008.84;5000457;28;20339;-88
2022/03/22 11:36:00;;;;;;;36.45;19.35;;;;;;;21.11;35.67;103003.78;5004687;28;20062;-84
2022/03/22 11:38:41;;;;;;;33.97;19.55;;;;;;;21.31;35.66;102999.38;4972381;28;20159;-84
2022/03/22 11:44:10;;;;;;;32.33;18.20;;;;;;;21.58;32.11;102998.94;5010616;28;20041;-84
2022/03/22 11:46:36;;;;;;;37.78;18.77;;;;;;;21.37;31.89;103007.19;4991598;28;20485;-88